sensor_id;sensor_type;location;lat;lon;timestamp;P1;durP1;ratioP1;P2;durP2;ratioP2
15297;SDS011;7750;48.796;9.026;2023-11-18T00:03:58;6.53;;;4.60;;
15297;SDS011;7750;48.796;9.026;2023-11-18T00:09:00;6.37;;;4.50;;
15297;SDS011;7750;48.796;9.026;2023-11-18T00:14:01;5.83;;;4.90;;
15297;SDS011;7750;48.796;9.026;2023-11-18T00:19:04;4.40;;;4.00;;
15297;SDS011;7750;48.796;9.026;2023-11-18T00:24:06;5.37;;;4.47;;
15297;SDS011;7750;48.796;9.026;2023-11-18T00:29:08;4.50;;;4.10;;
15297;SDS011;7750;48.796;9.026;2023-11-18T00:34:08;4.40;;;4.00;;
15297;SDS011;7750;48.796;9.026;2023-11-18T00:39:11;3.73;;;3.43;;
15297;SDS011;7750;48.796;9.026;2023-11-18T00:44:11;4.40;;;3.53;;
15297;SDS011;7750;48.796;9.026;2023-11-18T00:49:13;5.67;;;4.87;;
15297;SDS011;7750;48.796;9.026;2023-11-18T00:54:14;5.10;;;4.20;;
15297;SDS011;7750;48.796;9.026;2023-11-18T00:59:14;9.73;;;4.70;;
15297;SDS011;7750;48.796;9.026;2023-11-18T01:04:15;5.10;;;4.60;;
15297;SDS011;7750;48.796;9.026;2023-11-18T01:09:16;4.90;;;4.10;;
15297;SDS011;7750;48.796;9.026;2023-11-18T01:14:16;7.07;;;4.97;;
15297;SDS011;7750;48.796;9.026;2023-11-18T01:19:17;7.60;;;5.10;;
15297;SDS011;7750;48.796;9.026;2023-11-18T01:24:18;4.70;;;4.10;;
15297;SDS011;7750;48.796;9.026;2023-11-18T01:29:19;6.10;;;4.43;;
15297;SDS011;7750;48.796;9.026;2023-11-18T01:34:22;4.37;;;3.70;;
15297;SDS011;7750;48.796;9.026;2023-11-18T01:39:22;6.57;;;3.87;;
15297;SDS011;7750;48.796;9.026;2023-11-18T01:44:25;4.20;;;3.73;;
15297;SDS011;7750;48.796;9.026;2023-11-18T01:49:28;4.00;;;3.60;;
15297;SDS011;7750;48.796;9.026;2023-11-18T01:54:29;4.70;;;3.60;;
15297;SDS011;7750;48.796;9.026;2023-11-18T01:59:30;3.40;;;3.10;;
15297;SDS011;7750;48.796;9.026;2023-11-18T02:04:33;3.97;;;3.30;;
15297;SDS011;7750;48.796;9.026;2023-11-18T02:09:34;8.53;;;3.33;;
15297;SDS011;7750;48.796;9.026;2023-11-18T02:14:35;3.20;;;2.80;;
15297;SDS011;7750;48.796;9.026;2023-11-18T02:19:40;2.90;;;2.57;;
15297;SDS011;7750;48.796;9.026;2023-11-18T02:24:40;3.50;;;2.90;;
15297;SDS011;7750;48.796;9.026;2023-11-18T02:29:42;2.97;;;2.67;;
15297;SDS011;7750;48.796;9.026;2023-11-18T02:34:48;3.00;;;2.70;;
15297;SDS011;7750;48.796;9.026;2023-11-18T02:40:04;3.20;;;2.70;;
15297;SDS011;7750;48.796;9.026;2023-11-18T02:45:14;3.30;;;3.00;;
15297;SDS011;7750;48.796;9.026;2023-11-18T02:50:16;3.70;;;2.53;;
15297;SDS011;7750;48.796;9.026;2023-11-18T02:55:19;2.63;;;2.40;;
15297;SDS011;7750;48.796;9.026;2023-11-18T03:00:24;3.10;;;2.50;;
15297;SDS011;7750;48.796;9.026;2023-11-18T03:05:24;5.03;;;2.80;;
15297;SDS011;7750;48.796;9.026;2023-11-18T03:10:26;3.67;;;2.97;;
15297;SDS011;7750;48.796;9.026;2023-11-18T03:15:27;6.50;;;2.40;;
15297;SDS011;7750;48.796;9.026;2023-11-18T03:20:29;2.90;;;2.50;;
15297;SDS011;7750;48.796;9.026;2023-11-18T03:25:29;3.10;;;2.50;;
15297;SDS011;7750;48.796;9.026;2023-11-18T03:30:30;3.00;;;2.20;;
15297;SDS011;7750;48.796;9.026;2023-11-18T03:35:30;2.53;;;2.30;;
15297;SDS011;7750;48.796;9.026;2023-11-18T03:40:31;2.93;;;2.40;;
15297;SDS011;7750;48.796;9.026;2023-11-18T03:45:33;3.50;;;2.60;;
15297;SDS011;7750;48.796;9.026;2023-11-18T03:50:33;2.40;;;2.20;;
15297;SDS011;7750;48.796;9.026;2023-11-18T03:55:34;3.40;;;2.90;;
15297;SDS011;7750;48.796;9.026;2023-11-18T04:00:35;2.50;;;2.30;;
15297;SDS011;7750;48.796;9.026;2023-11-18T04:05:36;3.23;;;2.67;;
15297;SDS011;7750;48.796;9.026;2023-11-18T04:10:38;2.67;;;2.23;;
15297;SDS011;7750;48.796;9.026;2023-11-18T04:15:39;2.87;;;2.40;;
15297;SDS011;7750;48.796;9.026;2023-11-18T04:20:40;3.13;;;2.40;;
15297;SDS011;7750;48.796;9.026;2023-11-18T04:25:40;2.93;;;2.60;;
15297;SDS011;7750;48.796;9.026;2023-11-18T04:30:41;2.37;;;2.17;;
15297;SDS011;7750;48.796;9.026;2023-11-18T04:35:41;2.97;;;2.67;;
15297;SDS011;7750;48.796;9.026;2023-11-18T04:40:42;4.03;;;2.63;;
15297;SDS011;7750;48.796;9.026;2023-11-18T04:45:44;3.27;;;2.93;;
15297;SDS011;7750;48.796;9.026;2023-11-18T04:50:45;4.50;;;2.80;;
15297;SDS011;7750;48.796;9.026;2023-11-18T04:55:45;3.27;;;2.77;;
15297;SDS011;7750;48.796;9.026;2023-11-18T05:00:46;3.40;;;2.63;;
15297;SDS011;7750;48.796;9.026;2023-11-18T05:05:49;3.03;;;2.70;;
15297;SDS011;7750;48.796;9.026;2023-11-18T05:10:50;3.20;;;2.60;;
15297;SDS011;7750;48.796;9.026;2023-11-18T05:15:50;3.10;;;2.50;;
15297;SDS011;7750;48.796;9.026;2023-11-18T05:20:54;3.37;;;3.07;;
15297;SDS011;7750;48.796;9.026;2023-11-18T05:25:54;3.33;;;2.90;;
15297;SDS011;7750;48.796;9.026;2023-11-18T05:30:58;6.23;;;3.60;;
15297;SDS011;7750;48.796;9.026;2023-11-18T05:36:02;3.43;;;3.07;;
15297;SDS011;7750;48.796;9.026;2023-11-18T05:41:05;3.90;;;3.03;;
15297;SDS011;7750;48.796;9.026;2023-11-18T05:46:16;2.93;;;2.40;;
15297;SDS011;7750;48.796;9.026;2023-11-18T05:51:25;2.90;;;2.40;;
15297;SDS011;7750;48.796;9.026;2023-11-18T05:56:26;3.90;;;3.07;;
15297;SDS011;7750;48.796;9.026;2023-11-18T06:01:27;3.60;;;3.20;;
15297;SDS011;7750;48.796;9.026;2023-11-18T06:06:28;3.03;;;2.70;;
15297;SDS011;7750;48.796;9.026;2023-11-18T06:11:29;4.40;;;2.63;;
15297;SDS011;7750;48.796;9.026;2023-11-18T06:16:30;4.30;;;3.47;;
15297;SDS011;7750;48.796;9.026;2023-11-18T06:21:31;3.50;;;2.97;;
15297;SDS011;7750;48.796;9.026;2023-11-18T06:26:32;4.33;;;3.50;;
15297;SDS011;7750;48.796;9.026;2023-11-18T06:31:36;4.30;;;3.60;;
15297;SDS011;7750;48.796;9.026;2023-11-18T06:36:36;4.47;;;3.73;;
15297;SDS011;7750;48.796;9.026;2023-11-18T06:41:37;4.77;;;3.80;;
15297;SDS011;7750;48.796;9.026;2023-11-18T06:46:48;4.40;;;3.80;;
15297;SDS011;7750;48.796;9.026;2023-11-18T06:51:50;6.43;;;4.70;;
15297;SDS011;7750;48.796;9.026;2023-11-18T06:56:51;5.93;;;4.57;;
15297;SDS011;7750;48.796;9.026;2023-11-18T07:01:52;6.30;;;4.00;;
15297;SDS011;7750;48.796;9.026;2023-11-18T07:06:53;7.93;;;4.70;;
15297;SDS011;7750;48.796;9.026;2023-11-18T07:11:54;7.70;;;5.40;;
15297;SDS011;7750;48.796;9.026;2023-11-18T07:16:56;5.67;;;4.90;;
15297;SDS011;7750;48.796;9.026;2023-11-18T07:21:56;8.50;;;5.50;;
15297;SDS011;7750;48.796;9.026;2023-11-18T07:26:57;6.50;;;4.93;;
15297;SDS011;7750;48.796;9.026;2023-11-18T07:31:59;5.10;;;4.17;;
15297;SDS011;7750;48.796;9.026;2023-11-18T07:37:05;5.47;;;4.60;;
15297;SDS011;7750;48.796;9.026;2023-11-18T07:42:08;8.20;;;5.20;;
15297;SDS011;7750;48.796;9.026;2023-11-18T07:47:08;5.47;;;4.77;;
15297;SDS011;7750;48.796;9.026;2023-11-18T07:52:09;5.93;;;5.20;;
15297;SDS011;7750;48.796;9.026;2023-11-18T07:57:10;6.10;;;4.10;;
15297;SDS011;7750;48.796;9.026;2023-11-18T08:02:11;5.33;;;4.50;;
15297;SDS011;7750;48.796;9.026;2023-11-18T08:07:14;7.57;;;4.53;;
15297;SDS011;7750;48.796;9.026;2023-11-18T08:12:15;5.67;;;4.10;;
15297;SDS011;7750;48.796;9.026;2023-11-18T08:17:15;5.53;;;4.30;;
15297;SDS011;7750;48.796;9.026;2023-11-18T08:22:16;5.00;;;4.23;;
15297;SDS011;7750;48.796;9.026;2023-11-18T08:27:18;5.37;;;4.23;;
15297;SDS011;7750;48.796;9.026;2023-11-18T08:32:20;7.47;;;4.70;;
15297;SDS011;7750;48.796;9.026;2023-11-18T08:37:22;4.70;;;4.10;;
15297;SDS011;7750;48.796;9.026;2023-11-18T08:42:23;5.13;;;4.07;;
15297;SDS011;7750;48.796;9.026;2023-11-18T08:47:24;5.40;;;4.53;;
15297;SDS011;7750;48.796;9.026;2023-11-18T08:52:25;6.60;;;5.87;;
15297;SDS011;7750;48.796;9.026;2023-11-18T08:57:26;6.50;;;5.10;;
15297;SDS011;7750;48.796;9.026;2023-11-18T09:02:26;4.47;;;4.07;;
15297;SDS011;7750;48.796;9.026;2023-11-18T09:07:29;8.53;;;4.33;;
15297;SDS011;7750;48.796;9.026;2023-11-18T09:12:30;4.47;;;3.70;;
15297;SDS011;7750;48.796;9.026;2023-11-18T09:17:30;4.20;;;3.80;;
15297;SDS011;7750;48.796;9.026;2023-11-18T09:22:31;5.60;;;4.30;;
15297;SDS011;7750;48.796;9.026;2023-11-18T09:27:34;4.83;;;3.87;;
15297;SDS011;7750;48.796;9.026;2023-11-18T09:32:35;4.57;;;3.90;;
15297;SDS011;7750;48.796;9.026;2023-11-18T09:37:35;4.70;;;3.90;;
15297;SDS011;7750;48.796;9.026;2023-11-18T09:42:40;5.77;;;3.93;;
15297;SDS011;7750;48.796;9.026;2023-11-18T09:47:50;5.00;;;3.50;;
15297;SDS011;7750;48.796;9.026;2023-11-18T09:52:55;6.40;;;3.87;;
15297;SDS011;7750;48.796;9.026;2023-11-18T09:58:03;8.53;;;5.20;;
15297;SDS011;7750;48.796;9.026;2023-11-18T10:03:08;4.13;;;3.40;;
15297;SDS011;7750;48.796;9.026;2023-11-18T10:08:15;5.73;;;3.73;;
15297;SDS011;7750;48.796;9.026;2023-11-18T10:13:17;3.57;;;2.70;;
15297;SDS011;7750;48.796;9.026;2023-11-18T10:18:22;5.00;;;2.77;;
15297;SDS011;7750;48.796;9.026;2023-11-18T10:23:23;4.30;;;2.30;;
15297;SDS011;7750;48.796;9.026;2023-11-18T10:28:28;5.40;;;3.10;;
15297;SDS011;7750;48.796;9.026;2023-11-18T10:33:38;3.63;;;2.53;;
15297;SDS011;7750;48.796;9.026;2023-11-18T10:38:42;3.37;;;2.50;;
15297;SDS011;7750;48.796;9.026;2023-11-18T10:43:47;3.80;;;2.80;;
15297;SDS011;7750;48.796;9.026;2023-11-18T10:48:50;9.27;;;3.20;;
15297;SDS011;7750;48.796;9.026;2023-11-18T10:53:52;3.73;;;2.43;;
15297;SDS011;7750;48.796;9.026;2023-11-18T10:58:57;5.20;;;2.80;;
15297;SDS011;7750;48.796;9.026;2023-11-18T11:09:08;3.00;;;2.37;;
15297;SDS011;7750;48.796;9.026;2023-11-18T11:14:20;5.80;;;2.47;;
15297;SDS011;7750;48.796;9.026;2023-11-18T11:19:33;3.80;;;1.93;;
15297;SDS011;7750;48.796;9.026;2023-11-18T11:30:10;2.70;;;2.27;;
15297;SDS011;7750;48.796;9.026;2023-11-18T11:35:26;3.27;;;2.53;;
15297;SDS011;7750;48.796;9.026;2023-11-18T11:40:35;3.30;;;1.93;;
15297;SDS011;7750;48.796;9.026;2023-11-18T11:45:38;3.00;;;1.77;;
15297;SDS011;7750;48.796;9.026;2023-11-18T11:55:55;3.40;;;2.27;;
15297;SDS011;7750;48.796;9.026;2023-11-18T12:06:26;4.13;;;2.10;;
15297;SDS011;7750;48.796;9.026;2023-11-18T12:11:28;3.40;;;2.00;;
15297;SDS011;7750;48.796;9.026;2023-11-18T12:17:05;3.60;;;1.80;;
15297;SDS011;7750;48.796;9.026;2023-11-18T12:43:42;3.33;;;2.27;;
15297;SDS011;7750;48.796;9.026;2023-11-18T12:48:51;3.40;;;2.17;;
15297;SDS011;7750;48.796;9.026;2023-11-18T12:53:57;6.17;;;2.27;;
15297;SDS011;7750;48.796;9.026;2023-11-18T12:58:59;3.20;;;2.00;;
15297;SDS011;7750;48.796;9.026;2023-11-18T13:04:00;8.10;;;2.83;;
15297;SDS011;7750;48.796;9.026;2023-11-18T13:09:01;3.43;;;2.27;;
15297;SDS011;7750;48.796;9.026;2023-11-18T13:14:09;5.97;;;2.67;;
15297;SDS011;7750;48.796;9.026;2023-11-18T13:19:12;4.27;;;2.77;;
15297;SDS011;7750;48.796;9.026;2023-11-18T13:29:38;4.33;;;2.23;;
15297;SDS011;7750;48.796;9.026;2023-11-18T13:34:43;5.80;;;2.83;;
15297;SDS011;7750;48.796;9.026;2023-11-18T13:39:53;7.60;;;3.30;;
15297;SDS011;7750;48.796;9.026;2023-11-18T13:45:13;5.00;;;3.10;;
15297;SDS011;7750;48.796;9.026;2023-11-18T13:50:21;6.33;;;2.43;;
15297;SDS011;7750;48.796;9.026;2023-11-18T13:55:21;3.63;;;2.70;;
15297;SDS011;7750;48.796;9.026;2023-11-18T14:05:38;5.13;;;3.70;;
15297;SDS011;7750;48.796;9.026;2023-11-18T14:10:42;4.50;;;3.10;;
15297;SDS011;7750;48.796;9.026;2023-11-18T14:15:45;5.17;;;3.17;;
15297;SDS011;7750;48.796;9.026;2023-11-18T14:20:50;4.77;;;2.60;;
15297;SDS011;7750;48.796;9.026;2023-11-18T14:25:51;5.30;;;2.70;;
15297;SDS011;7750;48.796;9.026;2023-11-18T14:30:52;2.83;;;2.40;;
15297;SDS011;7750;48.796;9.026;2023-11-18T14:35:53;5.00;;;3.00;;
15297;SDS011;7750;48.796;9.026;2023-11-18T14:40:53;3.73;;;2.27;;
15297;SDS011;7750;48.796;9.026;2023-11-18T14:45:54;3.90;;;2.50;;
15297;SDS011;7750;48.796;9.026;2023-11-18T14:50:55;5.43;;;3.40;;
15297;SDS011;7750;48.796;9.026;2023-11-18T14:55:57;5.77;;;3.00;;
15297;SDS011;7750;48.796;9.026;2023-11-18T15:00:58;5.63;;;3.30;;
15297;SDS011;7750;48.796;9.026;2023-11-18T15:06:00;3.80;;;2.77;;
15297;SDS011;7750;48.796;9.026;2023-11-18T15:11:07;4.80;;;2.93;;
15297;SDS011;7750;48.796;9.026;2023-11-18T15:16:07;5.43;;;4.00;;
15297;SDS011;7750;48.796;9.026;2023-11-18T15:21:11;4.33;;;2.97;;
15297;SDS011;7750;48.796;9.026;2023-11-18T15:26:14;4.87;;;3.50;;
15297;SDS011;7750;48.796;9.026;2023-11-18T15:31:15;6.60;;;4.17;;
15297;SDS011;7750;48.796;9.026;2023-11-18T15:36:16;4.97;;;3.40;;
15297;SDS011;7750;48.796;9.026;2023-11-18T15:41:16;5.40;;;3.70;;
15297;SDS011;7750;48.796;9.026;2023-11-18T15:46:17;4.70;;;3.00;;
15297;SDS011;7750;48.796;9.026;2023-11-18T15:51:18;5.43;;;3.50;;
15297;SDS011;7750;48.796;9.026;2023-11-18T15:56:21;7.07;;;3.47;;
15297;SDS011;7750;48.796;9.026;2023-11-18T16:01:22;5.53;;;2.90;;
15297;SDS011;7750;48.796;9.026;2023-11-18T16:06:23;4.00;;;2.90;;
15297;SDS011;7750;48.796;9.026;2023-11-18T16:11:24;4.67;;;2.90;;
15297;SDS011;7750;48.796;9.026;2023-11-18T16:16:25;5.00;;;3.17;;
15297;SDS011;7750;48.796;9.026;2023-11-18T16:21:27;3.60;;;2.50;;
15297;SDS011;7750;48.796;9.026;2023-11-18T16:26:31;3.73;;;2.57;;
15297;SDS011;7750;48.796;9.026;2023-11-18T16:31:32;3.90;;;3.10;;
15297;SDS011;7750;48.796;9.026;2023-11-18T16:36:34;4.28;;;3.30;;
15297;SDS011;7750;48.796;9.026;2023-11-18T16:41:39;5.40;;;3.40;;
15297;SDS011;7750;48.796;9.026;2023-11-18T16:46:40;8.70;;;4.20;;
15297;SDS011;7750;48.796;9.026;2023-11-18T16:51:40;5.33;;;3.30;;
15297;SDS011;7750;48.796;9.026;2023-11-18T16:56:41;7.00;;;3.40;;
15297;SDS011;7750;48.796;9.026;2023-11-18T17:01:42;5.80;;;3.60;;
15297;SDS011;7750;48.796;9.026;2023-11-18T17:06:42;4.50;;;3.10;;
15297;SDS011;7750;48.796;9.026;2023-11-18T17:11:48;5.40;;;3.40;;
15297;SDS011;7750;48.796;9.026;2023-11-18T17:16:49;4.40;;;3.00;;
15297;SDS011;7750;48.796;9.026;2023-11-18T17:21:50;4.57;;;2.60;;
15297;SDS011;7750;48.796;9.026;2023-11-18T17:26:53;5.50;;;3.20;;
15297;SDS011;7750;48.796;9.026;2023-11-18T17:31:56;3.70;;;2.87;;
15297;SDS011;7750;48.796;9.026;2023-11-18T17:36:56;3.63;;;2.70;;
15297;SDS011;7750;48.796;9.026;2023-11-18T17:41:57;2.70;;;2.20;;
15297;SDS011;7750;48.796;9.026;2023-11-18T17:46:57;3.70;;;2.30;;
15297;SDS011;7750;48.796;9.026;2023-11-18T17:51:58;3.93;;;2.53;;
15297;SDS011;7750;48.796;9.026;2023-11-18T17:56:59;2.83;;;2.40;;
15297;SDS011;7750;48.796;9.026;2023-11-18T18:02:00;4.50;;;2.90;;
15297;SDS011;7750;48.796;9.026;2023-11-18T18:07:01;5.53;;;2.90;;
15297;SDS011;7750;48.796;9.026;2023-11-18T18:12:01;3.80;;;2.47;;
15297;SDS011;7750;48.796;9.026;2023-11-18T18:17:02;3.53;;;2.50;;
15297;SDS011;7750;48.796;9.026;2023-11-18T18:22:04;5.33;;;2.50;;
15297;SDS011;7750;48.796;9.026;2023-11-18T18:27:05;3.97;;;2.87;;
15297;SDS011;7750;48.796;9.026;2023-11-18T18:32:05;4.30;;;2.70;;
15297;SDS011;7750;48.796;9.026;2023-11-18T18:37:10;4.40;;;3.00;;
15297;SDS011;7750;48.796;9.026;2023-11-18T18:42:10;3.90;;;2.43;;
15297;SDS011;7750;48.796;9.026;2023-11-18T18:47:11;3.70;;;2.83;;
15297;SDS011;7750;48.796;9.026;2023-11-18T18:52:12;3.90;;;3.27;;
15297;SDS011;7750;48.796;9.026;2023-11-18T18:57:12;3.67;;;2.83;;
15297;SDS011;7750;48.796;9.026;2023-11-18T19:02:13;3.93;;;2.60;;
15297;SDS011;7750;48.796;9.026;2023-11-18T19:07:14;3.50;;;2.70;;
15297;SDS011;7750;48.796;9.026;2023-11-18T19:12:18;4.07;;;2.50;;
15297;SDS011;7750;48.796;9.026;2023-11-18T19:17:18;3.20;;;2.33;;
15297;SDS011;7750;48.796;9.026;2023-11-18T19:22:22;5.40;;;2.37;;
15297;SDS011;7750;48.796;9.026;2023-11-18T19:27:24;7.33;;;2.60;;
15297;SDS011;7750;48.796;9.026;2023-11-18T19:32:24;2.60;;;2.30;;
15297;SDS011;7750;48.796;9.026;2023-11-18T19:37:25;4.53;;;3.10;;
15297;SDS011;7750;48.796;9.026;2023-11-18T19:42:26;5.27;;;3.03;;
15297;SDS011;7750;48.796;9.026;2023-11-18T19:47:28;5.50;;;2.63;;
15297;SDS011;7750;48.796;9.026;2023-11-18T19:52:29;5.03;;;2.83;;
15297;SDS011;7750;48.796;9.026;2023-11-18T19:57:30;4.93;;;2.80;;
15297;SDS011;7750;48.796;9.026;2023-11-18T20:02:31;2.90;;;2.40;;
15297;SDS011;7750;48.796;9.026;2023-11-18T20:07:31;4.87;;;2.63;;
15297;SDS011;7750;48.796;9.026;2023-11-18T20:12:33;3.60;;;2.83;;
15297;SDS011;7750;48.796;9.026;2023-11-18T20:17:33;3.93;;;3.53;;
15297;SDS011;7750;48.796;9.026;2023-11-18T20:22:34;3.50;;;2.93;;
15297;SDS011;7750;48.796;9.026;2023-11-18T20:27:37;4.60;;;3.10;;
15297;SDS011;7750;48.796;9.026;2023-11-18T20:32:39;4.17;;;3.03;;
15297;SDS011;7750;48.796;9.026;2023-11-18T20:37:41;8.87;;;3.17;;
15297;SDS011;7750;48.796;9.026;2023-11-18T20:42:41;4.00;;;3.00;;
15297;SDS011;7750;48.796;9.026;2023-11-18T20:47:42;5.83;;;3.33;;
15297;SDS011;7750;48.796;9.026;2023-11-18T20:52:44;3.87;;;2.53;;
15297;SDS011;7750;48.796;9.026;2023-11-18T20:57:45;5.10;;;3.00;;
15297;SDS011;7750;48.796;9.026;2023-11-18T21:02:45;4.40;;;3.07;;
15297;SDS011;7750;48.796;9.026;2023-11-18T21:07:46;4.30;;;3.10;;
15297;SDS011;7750;48.796;9.026;2023-11-18T21:12:47;3.47;;;2.50;;
15297;SDS011;7750;48.796;9.026;2023-11-18T21:17:48;3.60;;;2.43;;
15297;SDS011;7750;48.796;9.026;2023-11-18T21:22:50;4.10;;;2.37;;
15297;SDS011;7750;48.796;9.026;2023-11-18T21:27:52;3.20;;;2.53;;
15297;SDS011;7750;48.796;9.026;2023-11-18T21:32:53;3.20;;;2.30;;
15297;SDS011;7750;48.796;9.026;2023-11-18T21:37:55;4.20;;;2.83;;
15297;SDS011;7750;48.796;9.026;2023-11-18T21:42:56;3.03;;;2.50;;
15297;SDS011;7750;48.796;9.026;2023-11-18T21:47:58;4.40;;;2.67;;
15297;SDS011;7750;48.796;9.026;2023-11-18T21:53:02;4.93;;;2.60;;
15297;SDS011;7750;48.796;9.026;2023-11-18T21:58:02;4.80;;;2.83;;
15297;SDS011;7750;48.796;9.026;2023-11-18T22:03:03;5.20;;;3.27;;
15297;SDS011;7750;48.796;9.026;2023-11-18T22:08:03;5.87;;;3.40;;
15297;SDS011;7750;48.796;9.026;2023-11-18T22:13:07;4.57;;;2.90;;
15297;SDS011;7750;48.796;9.026;2023-11-18T22:18:08;4.57;;;2.77;;
15297;SDS011;7750;48.796;9.026;2023-11-18T22:23:09;4.60;;;2.27;;
15297;SDS011;7750;48.796;9.026;2023-11-18T22:28:10;2.63;;;2.00;;
15297;SDS011;7750;48.796;9.026;2023-11-18T22:33:16;5.40;;;2.20;;
15297;SDS011;7750;48.796;9.026;2023-11-18T22:38:18;3.70;;;2.20;;
15297;SDS011;7750;48.796;9.026;2023-11-18T22:43:18;5.23;;;2.70;;
15297;SDS011;7750;48.796;9.026;2023-11-18T22:48:19;2.63;;;2.10;;
15297;SDS011;7750;48.796;9.026;2023-11-18T22:53:21;2.97;;;1.93;;
15297;SDS011;7750;48.796;9.026;2023-11-18T22:58:21;3.20;;;2.23;;
15297;SDS011;7750;48.796;9.026;2023-11-18T23:03:22;3.07;;;2.47;;
15297;SDS011;7750;48.796;9.026;2023-11-18T23:08:34;3.10;;;2.30;;
15297;SDS011;7750;48.796;9.026;2023-11-18T23:13:35;2.27;;;1.90;;
15297;SDS011;7750;48.796;9.026;2023-11-18T23:18:35;2.80;;;1.97;;
15297;SDS011;7750;48.796;9.026;2023-11-18T23:23:36;2.40;;;2.03;;
15297;SDS011;7750;48.796;9.026;2023-11-18T23:28:37;2.77;;;2.30;;
15297;SDS011;7750;48.796;9.026;2023-11-18T23:33:38;2.57;;;1.93;;
15297;SDS011;7750;48.796;9.026;2023-11-18T23:38:38;3.70;;;2.37;;
15297;SDS011;7750;48.796;9.026;2023-11-18T23:43:39;2.50;;;2.17;;
15297;SDS011;7750;48.796;9.026;2023-11-18T23:48:40;3.07;;;1.93;;
15297;SDS011;7750;48.796;9.026;2023-11-18T23:53:43;2.90;;;1.97;;
15297;SDS011;7750;48.796;9.026;2023-11-18T23:58:44;18.53;;;3.40;;
